Harmonyville, Vermont
Current Conditions -  °F | °C
As of 6:54 AM on Friday 31 Oct 2014 (Local Time) from KVSF Reporting Station
Overcast Overcast  
Wind Chill: 40°   Ceiling: 3000
Heat Index: 40°   Visibility: 10mi
Dew Point: 38°   Wind: 0mph
Humidity: 93%   Direction: NA
Pressure: 30.04"   Gusts: NA
Location:  43.0642°N, 72.6668°W
Report Text: KVSF 311054Z AUTO 00000KT 10SM BKN030 OVC044 04/03 A3004 RMK AO2 SLP176 T00440033
Loading
Personal Weather Stations






























Interactive Weather Map New forecast layout! Learn more

10-Day Weather Forecast

Advertisements
Track Severe Weather on mobile